Latest Weather Observations for Perisher Valley

IDN60901

Issued at 9:51 pm EDT Thursday 11 February 2016 (issued every 10 minutes, with the page automatically refreshed every 10 minutes)

About weather observations | Map of Canberra area stations | Latest observations for Canberra area | Other Formats
Station Details ID: 071075 Name: PERISHER VALLEY AWS Lat: -36.41 Lon: 148.41 Height: 1738.0 m
Data from the previous 72 hours. | See also: Recent months at Perisher Valley
Date/Time
EDT
Tmp

°C
App
Tmp
°C
Dew
Point
°C
Rel
Hum
%
Delta-T

°C
Wind Press
QNH
hPa
Press
MSL
hPa
Rain
since
9 am
mm
Dir
 
Spd
km/h
Gust
km/h
Spd
kts
Gust
kts
11/09:30pm 11.9 11.3 10.5 91 0.8 NNE 4 7 2 4 - - 0.4
11/09:00pm 12.4 11.8 10.5 88 1.1 SSE 4 17 2 9 - - 0.2
11/08:30pm 13.0 12.2 9.8 81 1.8 ESE 4 6 2 3 - - 0.0
11/08:00pm 13.5 12.4 10.5 82 1.7 NNE 7 11 4 6 - - 0.0
11/07:30pm 14.0 12.3 11.3 84 1.6 NE 11 19 6 10 - - 0.0
11/07:00pm 14.7 12.1 12.0 84 1.6 NE 17 24 9 13 - - 0.0
11/06:30pm 16.1 14.7 7.1 55 4.9 ESE 4 13 2 7 - - 0.0
11/06:00pm 16.5 14.3 5.5 48 5.8 SSE 6 15 3 8 - - 0.0
11/05:30pm 16.4 14.6 7.1 54 5.1 SE 6 13 3 7 - - 0.0
11/05:00pm 17.6 15.6 8.5 55 5.1 ESE 9 19 5 10 - - 0.0
11/04:30pm 18.1 16.6 9.2 56 5.1 SE 7 17 4 9 - - 0.0
11/04:00pm 17.8 16.7 10.7 63 4.2 ESE 7 19 4 10 - - 0.0
11/03:30pm 16.8 15.1 7.7 55 5.0 SSE 6 17 3 9 - - 0.0
11/03:00pm 17.8 16.5 9.9 60 4.6 ESE 7 17 4 9 - - 0.0
11/02:30pm 16.2 14.4 9.6 65 3.8 ESE 9 19 5 10 - - 0.0
11/02:00pm 17.7 15.7 8.6 55 5.1 SE 9 19 5 10 - - 0.0
11/01:30pm 18.0 16.4 8.6 54 5.3 E 7 17 4 9 - - 0.0
11/01:00pm 16.6 15.3 11.3 71 3.1 ESE 9 15 5 8 - - 0.0
11/12:30pm 16.6 14.7 9.1 61 4.2 E 9 17 5 9 - - 0.0
11/12:00pm 17.6 16.5 8.5 55 5.1 S 4 9 2 5 - - 0.0
11/11:30am 18.4 16.7 7.5 49 6.0 SE 6 17 3 9 - - 0.0
11/11:00am 18.2 15.9 7.3 49 6.0 ENE 9 15 5 8 - - 0.0
11/10:30am 17.2 15.3 6.7 50 5.7 ENE 6 11 3 6 - - 0.0
11/10:00am 17.7 15.6 5.6 45 6.4 SE 6 9 3 5 - - 0.0
11/09:30am 17.7 16.6 8.6 55 5.1 E 4 9 2 5 - - 0.0
11/09:00am 16.5 15.8 9.9 65 3.8 ENE 4 6 2 3 - - 0.0
11/08:30am 14.4 14.0 9.8 74 2.6 ENE 2 4 1 2 - - 0.0
11/08:00am 11.0 10.0 8.8 86 1.2 SW 4 7 2 4 - - 0.0
11/07:30am 7.5 6.3 6.3 92 0.6 WSW 2 4 1 2 - - 0.0
11/07:00am 5.0 3.6 3.7 91 0.6 CALM 0 2 0 1 - - 0.0
11/06:30am 4.4 2.5 3.1 91 0.6 SW 2 4 1 2 - - 0.0
11/06:00am 5.3 3.6 4.0 91 0.6 SW 2 4 1 2 - - 0.0
11/05:30am 5.0 3.6 3.5 90 0.7 CALM 0 2 0 1 - - 0.0
11/05:00am 5.9 4.3 4.7 92 0.6 WSW 2 6 1 3 - - 0.0
11/04:30am 5.6 4.0 4.4 92 0.6 SW 2 6 1 3 - - 0.0
11/04:00am 6.3 4.1 5.1 92 0.6 SW 6 7 3 4 - - 0.0
11/03:30am 6.5 5.2 5.9 96 0.3 SW 2 6 1 3 - - 0.0
11/03:00am 6.5 5.2 5.9 96 0.3 SW 2 4 1 2 - - 0.0
11/02:30am 6.6 5.3 5.9 95 0.3 WSW 2 4 1 2 - - 0.0
11/02:00am 8.0 6.7 7.6 97 0.2 SW 4 4 2 2 - - 0.0
11/01:30am 7.4 5.9 6.7 95 0.4 SW 4 6 2 3 - - 0.0
11/01:00am 8.1 7.5 7.2 94 0.5 CALM 0 0 0 0 - - 0.0
11/12:30am 8.6 7.6 7.5 93 0.6 WSW 2 6 1 3 - - 0.0
11/12:00am 9.5 8.4 8.4 93 0.6 SW 4 7 2 4 - - 0.0
 
Date/Time
EDT
Tmp

°C
App
Tmp
°C
Dew
Point
°C
Rel
Hum
%
Delta-T

°C
Wind Press
QNH
hPa
Press
MSL
hPa
Rain
since
9 am
mm
Dir
 
Spd
km/h
Gust
km/h
Spd
kts
Gust
kts
10/11:30pm 10.0 8.9 8.6 91 0.8 SW 4 7 2 4 - - 0.0
10/11:00pm 11.5 10.4 10.1 91 0.8 WSW 6 11 3 6 - - 0.0
10/10:30pm 12.0 11.0 10.4 90 0.9 W 6 11 3 6 - - 0.0
10/10:00pm 12.6 11.0 11.5 93 0.6 E 11 22 6 12 - - 0.0
10/09:30pm 13.2 11.9 11.4 89 1.0 E 9 19 5 10 - - 0.0
10/09:00pm 14.5 13.5 12.2 86 1.4 SSW 9 19 5 10 - - 0.0
10/08:30pm 14.4 12.6 7.9 65 3.5 W 7 13 4 7 - - 0.0
10/08:00pm 15.8 13.7 8.3 61 4.2 W 9 17 5 9 - - 0.0
10/07:30pm 16.9 15.2 8.3 57 4.8 W 7 13 4 7 - - 0.0
10/07:00pm 17.7 15.7 8.8 56 5.0 W 9 17 5 9 - - 0.0
10/06:30pm 19.4 18.2 8.1 48 6.4 WSW 4 11 2 6 - - 0.0
10/06:00pm 19.0 17.3 8.4 50 6.0 SW 7 15 4 8 - - 0.0
10/05:30pm 19.7 17.8 9.0 50 6.1 WSW 9 17 5 9 - - 0.0
10/05:00pm 19.2 17.6 8.8 51 5.9 WSW 7 19 4 10 - - 0.0
10/04:30pm 19.8 17.6 9.4 51 6.0 W 11 19 6 10 - - 0.0
10/04:00pm 19.5 17.2 9.1 51 6.0 WNW 11 20 6 11 - - 0.0
10/03:30pm 19.7 17.3 8.7 49 6.3 W 11 24 6 13 - - 0.0
10/03:00pm 19.1 16.1 6.2 43 7.0 W 11 24 6 13 - - 0.0
10/02:30pm 18.5 13.4 3.2 36 7.8 WNW 19 32 10 17 - - 0.0
10/02:00pm 18.9 14.5 2.7 34 8.2 W 15 30 8 16 - - 0.0
10/01:30pm 18.3 12.9 2.6 35 7.9 W 20 33 11 18 - - 0.0
10/01:00pm 18.3 14.0 5.2 42 6.9 WNW 17 33 9 18 - - 0.0
10/12:30pm 18.4 15.1 6.3 45 6.6 W 13 32 7 17 - - 0.0
10/12:00pm 17.8 13.2 6.7 48 6.0 W 20 35 11 19 - - 0.0
10/11:30am 17.5 13.0 8.4 55 5.1 W 22 37 12 20 - - 0.0
10/11:18am 17.4 11.8 8.8 57 4.9 W 28 48 15 26 - - 0.0
10/11:00am 16.7 10.8 9.1 61 4.3 W 30 48 16 26 - - 0.0
10/10:52am 16.8 11.5 9.7 63 4.1 W 28 50 15 27 - - 0.0
10/10:30am 16.3 10.2 9.7 65 3.8 W 32 48 17 26 - - 0.0
10/10:07am 16.2 10.9 9.8 66 3.7 W 28 52 15 28 - - 0.0
10/10:00am 15.9 11.0 9.8 67 3.5 W 26 44 14 24 - - 0.0
10/09:31am 15.7 10.4 9.8 68 3.4 W 28 48 15 26 - - 0.0
10/09:30am 15.7 9.9 9.6 67 3.5 W 30 48 16 26 - - 0.0
10/09:00am 14.9 9.2 9.7 71 2.9 W 30 46 16 25 - - 0.0
10/08:30am 14.4 9.4 9.6 73 2.7 W 26 39 14 21 - - 0.0
10/08:00am 14.2 10.4 9.2 72 2.8 W 19 41 10 22 - - 0.0
10/07:30am 14.0 10.5 8.6 70 3.0 W 17 35 9 19 - - 0.0
10/07:00am 13.9 9.8 7.7 66 3.4 W 19 33 10 18 - - 0.0
10/06:30am 13.8 9.9 7.3 65 3.5 W 17 32 9 17 - - 0.0
10/06:00am 13.7 10.4 6.3 61 3.9 W 13 22 7 12 - - 0.0
10/05:30am 13.8 10.1 6.4 61 3.9 W 15 28 8 15 - - 0.0
10/05:00am 14.1 10.1 6.7 61 3.9 W 17 33 9 18 - - 0.0
10/04:30am 14.9 9.6 6.7 58 4.4 W 24 35 13 19 - - 0.0
10/04:00am 15.0 10.3 5.2 52 5.1 W 19 41 10 22 - - 0.0
10/03:30am 15.2 10.7 6.2 55 4.8 W 19 39 10 21 - - 0.0
10/03:00am 14.9 10.8 6.0 55 4.7 W 17 32 9 17 - - 0.0
10/02:30am 14.3 11.2 5.7 56 4.5 WSW 11 28 6 15 - - 0.0
10/02:00am 12.6 9.9 5.8 63 3.5 W 9 15 5 8 - - 0.0
10/01:30am 11.4 8.8 6.3 71 2.6 WSW 9 17 5 9 - - 0.0
10/01:00am 8.8 7.8 5.4 79 1.7 CALM 0 0 0 0 - - 0.0
10/12:30am 10.6 9.3 6.2 74 2.3 NNE 2 4 1 2 - - 0.0
10/12:00am 11.8 9.8 6.3 69 2.9 WSW 6 11 3 6 - - 0.0
 
Date/Time
EDT
Tmp

°C
App
Tmp
°C
Dew
Point
°C
Rel
Hum
%
Delta-T

°C
Wind Press
QNH
hPa
Press
MSL
hPa
Rain
since
9 am
mm
Dir
 
Spd
km/h
Gust
km/h
Spd
kts
Gust
kts
09/11:30pm 13.6 11.0 7.8 68 3.1 W 11 19 6 10 - - 0.0
09/11:00pm 13.1 10.7 8.6 74 2.5 W 11 19 6 10 - - 0.0
09/10:30pm 13.7 11.4 9.0 73 2.6 W 11 19 6 10 - - 0.0
09/10:00pm 14.7 12.5 9.3 70 3.0 W 11 17 6 9 - - 0.0
09/09:30pm 13.7 12.2 9.2 74 2.5 W 7 15 4 8 - - 0.0
09/09:00pm 13.5 12.0 8.4 71 2.8 WSW 6 13 3 7 - - 0.0
09/08:30pm 14.6 12.6 8.8 68 3.2 WSW 9 20 5 11 - - 0.0
09/08:00pm 15.6 14.0 8.6 63 3.9 W 7 13 4 7 - - 0.0
09/07:30pm 16.6 15.0 8.1 57 4.7 W 6 13 3 7 - - 0.0
09/07:00pm 18.7 16.1 7.8 49 6.1 W 11 17 6 9 - - 0.0
09/06:30pm 19.4 17.7 8.4 49 6.2 W 7 13 4 7 - - 0.0
09/06:00pm 20.3 18.6 8.3 46 6.8 W 7 22 4 12 - - 0.0
09/05:30pm 20.1 17.8 7.5 44 7.0 W 9 22 5 12 - - 0.0
09/05:00pm 20.9 19.3 7.9 43 7.3 NW 6 13 3 7 - - 0.0
09/04:30pm 20.3 17.4 6.3 40 7.7 WNW 11 20 6 11 - - 0.0
09/04:00pm 21.0 19.0 7.3 41 7.7 WNW 7 13 4 7 - - 0.0
09/03:30pm 20.7 18.0 7.3 42 7.5 W 11 24 6 13 - - 0.0
09/03:00pm 21.0 18.5 8.0 43 7.4 W 11 28 6 15 - - 0.0
09/02:30pm 20.0 17.1 6.7 42 7.3 W 11 24 6 13 - - 0.0
09/02:00pm 20.2 17.9 7.6 44 7.1 W 9 22 5 12 - - 0.0
09/01:30pm 19.6 15.9 6.4 42 7.2 W 15 24 8 13 - - 0.0
09/01:00pm 19.1 16.1 7.8 48 6.3 WNW 13 24 7 13 - - 0.0
09/12:30pm 18.7 16.1 9.2 54 5.4 WNW 13 22 7 12 - - 0.0
09/12:00pm 18.1 15.0 8.9 55 5.2 W 15 28 8 15 - - 0.0
09/11:30am 18.9 17.2 9.9 56 5.2 WNW 9 24 5 13 - - 0.0
09/11:00am 18.3 16.5 9.6 57 5.0 W 9 22 5 12 - - 0.0
09/10:30am 18.1 16.7 11.0 63 4.2 WSW 9 22 5 12 - - 0.0
09/10:00am 18.1 17.3 11.0 63 4.2 SW 6 20 3 11 - - 0.0
09/09:30am 17.0 15.6 9.4 61 4.3 W 7 20 4 11 - - 0.0
09/09:00am 16.6 15.3 9.3 62 4.1 WSW 6 13 3 7 - - 0.0
09/08:30am 15.9 15.1 9.6 66 3.6 SW 4 7 2 4 - - 0.0
09/08:00am 13.2 12.8 9.8 80 1.9 SSW 2 7 1 4 - - 0.0
09/07:30am 9.9 8.5 7.3 84 1.4 WSW 4 7 2 4 - - 0.0
09/07:00am 7.5 5.9 6.4 93 0.6 SW 4 7 2 4 - - 0.0
09/06:30am 7.1 5.9 6.4 95 0.4 WSW 2 6 1 3 - - 0.0
09/06:00am 6.2 4.4 5.3 94 0.4 SW 4 7 2 4 - - 0.0
09/05:30am 6.3 5.2 5.1 92 0.6 CALM 0 2 0 1 - - 0.0
09/05:00am 6.1 4.5 4.4 89 0.8 SW 2 6 1 3 - - 0.0
09/04:30am 6.0 3.9 3.7 85 1.1 SW 4 7 2 4 - - 0.0
09/04:00am 6.7 5.6 5.2 90 0.7 CALM 0 2 0 1 - - 0.0
09/03:30am 6.9 5.4 5.2 89 0.8 SSW 2 2 1 1 - - 0.0
09/03:00am 7.4 5.4 6.2 92 0.6 WSW 6 7 3 4 - - 0.0
09/02:30am 8.7 6.9 8.1 96 0.3 WSW 7 13 4 7 - - 0.0
09/02:00am 9.1 7.6 8.6 97 0.3 WSW 6 11 3 6 - - 0.0
09/01:30am 7.0 5.7 5.9 93 0.5 SW 2 4 1 2 - - 0.0
09/01:00am 7.7 6.2 6.8 94 0.5 WSW 4 6 2 3 - - 0.0
09/12:30am 8.5 7.6 7.6 94 0.5 SW 2 4 1 2 - - 0.0
09/12:00am 9.3 8.9 8.1 92 0.6 CALM 0 2 0 1 - - 0.0
 
Date/Time
EDT
Tmp

°C
App
Tmp
°C
Dew
Point
°C
Rel
Hum
%
Delta-T

°C
Wind Press
QNH
hPa
Press
MSL
hPa
Rain
since
9 am
mm
Dir
 
Spd
km/h
Gust
km/h
Spd
kts
Gust
kts
08/11:30pm 10.1 9.8 8.7 91 0.8 CALM 0 2 0 1 - - 0.0
08/11:00pm 10.9 10.4 9.2 89 0.9 W 2 4 1 2 - - 0.0
08/10:30pm 12.2 12.1 10.8 91 0.8 SW 2 7 1 4 - - 0.0
08/10:00pm 12.8 12.0 10.9 88 1.1 WSW 6 11 3 6 - - 0.0

Latest Capital City Observations: Canberra | Sydney | Melbourne | Brisbane | Adelaide | Perth | Hobart | Darwin

Other Formats:

Comma delimited format used in spreadsheet applications
http://www.bom.gov.au/fwo/IDN60903/IDN60903.94915.axf

JavaScript Object Notation format (JSON) in row-major order
http://www.bom.gov.au/fwo/IDN60903/IDN60903.94915.json